createdAt,value
2023-01-13T00:00:56.707Z,99897.97
2023-01-13T00:03:23.543Z,99927.66
2023-01-13T00:05:50.273Z,99929.16
2023-01-13T00:08:18.530Z,99932.94
2023-01-13T00:10:47.016Z,99923.25
2023-01-13T00:13:15.172Z,99922.75
2023-01-13T00:15:41.978Z,99924.09
2023-01-13T00:18:09.280Z,99919.28
2023-01-13T00:20:36.456Z,99911.19
2023-01-13T00:23:03.266Z,99889.16
2023-01-13T00:25:31.354Z,99888.75
2023-01-13T00:27:58.169Z,99899.88
2023-01-13T00:30:24.974Z,99883.38
2023-01-13T00:32:51.788Z,99894.81
2023-01-13T00:35:18.538Z,99899.44
2023-01-13T00:37:45.475Z,99899.72
2023-01-13T00:40:12.739Z,99869.56
2023-01-13T00:42:41.123Z,99897.25
2023-01-13T00:45:08.360Z,99891.94
2023-01-13T00:47:35.212Z,99898.06
2023-01-13T00:50:02.010Z,99889.66
2023-01-13T00:52:29.183Z,99893.81
2023-01-13T00:54:55.906Z,99886.03
2023-01-13T00:57:22.731Z,99885.00
2023-01-13T00:59:51.109Z,99878.09
2023-01-13T01:02:18.072Z,99871.50
2023-01-13T01:04:44.823Z,99870.81
2023-01-13T01:07:11.644Z,99874.00
2023-01-13T01:09:38.413Z,99845.44
2023-01-13T01:12:05.549Z,99879.78
2023-01-13T01:14:33.830Z,99874.16
2023-01-13T01:17:02.529Z,99856.13
2023-01-13T01:19:29.288Z,99860.38
2023-01-13T01:21:56.112Z,99872.47
2023-01-13T01:24:22.854Z,99875.81
2023-01-13T01:26:49.931Z,99881.91
2023-01-13T01:29:16.766Z,99875.44
2023-01-13T01:31:44.091Z,99853.97
2023-01-13T01:34:12.302Z,99889.38
2023-01-13T01:36:39.587Z,99913.84
2023-01-13T01:39:06.708Z,99936.47
2023-01-13T01:41:35.702Z,99950.38
2023-01-13T01:44:08.258Z,99942.34
2023-01-13T01:46:37.413Z,99938.56
2023-01-13T01:49:14.879Z,99943.53
2023-01-13T01:51:45.243Z,99947.56
2023-01-13T01:54:18.029Z,99951.75
2023-01-13T01:56:46.146Z,99951.19
2023-01-13T01:59:14.118Z,99947.34
2023-01-13T02:01:42.299Z,99954.19
2023-01-13T02:04:14.594Z,99964.19
2023-01-13T02:06:42.563Z,99952.13
2023-01-13T02:09:10.678Z,99967.13
2023-01-13T02:11:44.976Z,99967.97
2023-01-13T02:14:12.600Z,99975.03
2023-01-13T02:16:48.418Z,99982.56
2023-01-13T02:19:36.140Z,99976.31
2023-01-13T02:22:26.149Z,99963.81
2023-01-13T02:25:39.525Z,99961.47
2023-01-13T02:28:24.666Z,99938.22
2023-01-13T02:30:59.148Z,99944.72
2023-01-13T02:33:45.586Z,99933.06
2023-01-13T02:36:23.697Z,99933.06
2023-01-13T02:38:54.433Z,99925.28
2023-01-13T02:41:27.426Z,99880.31
2023-01-13T02:43:58.582Z,99945.16
2023-01-13T02:46:30.209Z,99959.59
2023-01-13T02:49:00.049Z,99931.38
2023-01-13T02:51:29.622Z,99949.47
2023-01-13T02:54:01.213Z,99904.03
2023-01-13T02:56:29.411Z,99923.69
2023-01-13T02:58:57.977Z,99927.41
2023-01-13T03:01:26.328Z,99896.19
2023-01-13T03:03:53.086Z,99918.34
2023-01-13T03:06:35.629Z,99947.00
2023-01-13T03:09:10.608Z,99954.06
2023-01-13T03:11:50.708Z,99926.69
2023-01-13T03:14:30.137Z,99959.78
2023-01-13T03:17:14.250Z,99839.63
2023-01-13T03:19:46.516Z,99944.25
2023-01-13T03:22:21.862Z,99908.94
2023-01-13T03:24:53.165Z,99940.09
2023-01-13T03:27:25.471Z,99945.66
2023-01-13T03:29:59.099Z,99932.50
2023-01-13T03:32:32.349Z,99928.75
2023-01-13T03:35:03.795Z,99926.41
2023-01-13T03:37:34.836Z,99933.59
2023-01-13T03:40:07.712Z,99880.28
2023-01-13T03:42:36.695Z,99896.59
2023-01-13T03:45:09.907Z,99910.63
2023-01-13T03:47:42.139Z,99903.56
2023-01-13T03:50:15.175Z,99909.41
2023-01-13T03:52:44.545Z,99924.66
2023-01-13T03:55:14.204Z,99912.31
2023-01-13T03:57:46.806Z,99921.59
2023-01-13T04:00:15.498Z,99935.56
2023-01-13T04:02:51.506Z,99932.81
2023-01-13T04:05:18.778Z,99919.66
2023-01-13T04:07:55.006Z,99930.16
2023-01-13T04:10:27.914Z,99938.50
2023-01-13T04:12:59.669Z,99930.06
2023-01-13T04:15:29.226Z,99878.66
2023-01-13T04:18:32.270Z,99926.44
2023-01-13T04:21:00.858Z,99925.59
2023-01-13T04:23:28.394Z,99889.19
2023-01-13T04:25:55.596Z,99927.13
2023-01-13T04:28:22.974Z,99922.00
2023-01-13T04:30:50.005Z,99933.22
2023-01-13T04:33:19.398Z,99940.00
2023-01-13T04:35:47.033Z,99928.03
2023-01-13T04:38:15.112Z,99923.88
2023-01-13T04:40:42.280Z,99921.94
2023-01-13T04:43:08.834Z,99924.53
2023-01-13T04:45:35.596Z,99920.09
2023-01-13T04:48:02.572Z,99930.72
2023-01-13T04:50:30.657Z,99855.56
2023-01-13T04:52:57.290Z,99920.56
2023-01-13T04:55:24.853Z,99871.41
2023-01-13T04:57:51.670Z,99786.50
2023-01-13T05:00:20.689Z,99783.97
2023-01-13T05:02:49.217Z,99826.78
2023-01-13T05:05:15.816Z,99933.19
2023-01-13T05:07:44.010Z,99935.66
2023-01-13T05:10:11.677Z,99940.75
2023-01-13T05:12:38.350Z,99932.28
2023-01-13T05:15:05.959Z,99940.97
2023-01-13T05:17:32.906Z,99940.53
2023-01-13T05:19:59.738Z,99926.19
2023-01-13T05:22:26.306Z,99936.44
2023-01-13T05:24:54.403Z,99931.44
2023-01-13T05:27:20.974Z,99920.66
2023-01-13T05:29:47.539Z,99876.63
2023-01-13T05:32:14.224Z,99921.94
2023-01-13T05:34:40.910Z,99933.66
2023-01-13T05:37:07.422Z,99921.78
2023-01-13T05:39:34.275Z,99930.50
2023-01-13T05:42:02.131Z,99933.75
2023-01-13T05:44:28.723Z,99943.22
2023-01-13T05:46:55.434Z,99938.00
2023-01-13T05:49:22.041Z,99940.63
2023-01-13T05:51:48.612Z,99946.16
2023-01-13T05:54:15.233Z,99962.13
2023-01-13T05:56:41.736Z,99964.63
2023-01-13T05:59:09.775Z,99958.69
2023-01-13T06:01:36.366Z,99972.59
2023-01-13T06:04:02.975Z,99975.94
2023-01-13T06:06:29.533Z,99975.00
2023-01-13T06:08:56.179Z,99952.72
2023-01-13T06:11:22.686Z,99973.78
2023-01-13T06:13:49.445Z,99975.56
2023-01-13T06:16:17.719Z,99976.91
2023-01-13T06:18:44.353Z,99976.28
2023-01-13T06:21:10.893Z,99973.44
2023-01-13T06:23:37.471Z,99972.72
2023-01-13T06:26:08.425Z,99977.94
2023-01-13T06:28:35.425Z,99988.66
2023-01-13T06:31:04.681Z,99997.00
2023-01-13T06:33:36.957Z,100012.22
2023-01-13T06:36:10.073Z,100011.00
2023-01-13T06:38:41.392Z,100013.13
2023-01-13T06:41:08.448Z,100013.00
2023-01-13T06:43:35.117Z,100011.56
2023-01-13T06:46:01.980Z,100011.41
2023-01-13T06:48:31.274Z,100010.91
2023-01-13T06:50:59.302Z,100006.97
2023-01-13T06:53:25.831Z,100025.66
2023-01-13T06:55:52.400Z,100024.16
2023-01-13T06:58:18.935Z,100017.00
2023-01-13T07:00:45.756Z,99978.09
2023-01-13T07:03:13.764Z,100011.13
2023-01-13T07:05:42.418Z,99996.94
2023-01-13T07:08:11.140Z,100021.81
2023-01-13T07:10:38.722Z,99993.13
2023-01-13T07:13:05.952Z,100024.28
2023-01-13T07:15:32.632Z,100029.19
2023-01-13T07:17:59.909Z,100031.28
2023-01-13T07:20:26.805Z,100032.09
2023-01-13T07:22:54.227Z,100026.72
2023-01-13T07:25:22.608Z,100035.88
2023-01-13T07:27:49.332Z,100030.31
2023-01-13T07:30:16.279Z,100045.03
2023-01-13T07:32:42.789Z,100040.47
2023-01-13T07:35:09.766Z,100043.25
2023-01-13T07:37:37.836Z,100041.06
2023-01-13T07:40:05.928Z,100041.63
2023-01-13T07:42:33.807Z,100020.41
2023-01-13T07:45:00.568Z,100036.69
2023-01-13T07:47:27.080Z,100039.31
2023-01-13T07:49:53.700Z,100047.38
2023-01-13T07:52:20.223Z,100031.88
2023-01-13T07:54:46.773Z,100038.13
2023-01-13T07:57:13.313Z,100037.72
2023-01-13T07:59:41.284Z,100043.13
2023-01-13T08:02:11.651Z,100053.63
2023-01-13T08:04:38.715Z,100070.94
2023-01-13T08:07:05.578Z,100078.19
2023-01-13T08:09:32.541Z,100072.63
2023-01-13T08:11:59.219Z,100067.72
2023-01-13T08:14:25.865Z,100086.66
2023-01-13T08:16:53.792Z,100084.00
2023-01-13T08:19:20.437Z,100083.81
2023-01-13T08:21:46.978Z,100066.84
2023-01-13T08:24:13.711Z,99975.56
2023-01-13T08:26:40.288Z,100095.75
2023-01-13T08:29:06.902Z,100097.53
2023-01-13T08:31:33.532Z,100098.75
2023-01-13T08:34:01.495Z,100115.16
2023-01-13T08:36:28.062Z,100107.38
2023-01-13T08:38:54.654Z,100080.06
2023-01-13T08:41:21.419Z,100104.19
2023-01-13T08:43:47.991Z,100098.00
2023-01-13T08:46:14.525Z,100104.81
2023-01-13T08:48:41.163Z,100105.66
2023-01-13T08:51:09.241Z,100092.19
2023-01-13T08:53:36.031Z,100112.69
2023-01-13T08:56:07.315Z,100123.19
2023-01-13T08:58:33.938Z,100125.22
2023-01-13T09:01:04.909Z,100131.19
2023-01-13T09:03:31.742Z,100136.91
2023-01-13T09:05:58.224Z,100134.16
2023-01-13T09:08:26.168Z,100143.09
2023-01-13T09:10:52.726Z,100144.09
2023-01-13T09:13:19.302Z,100149.19
2023-01-13T09:15:46.214Z,100136.81
2023-01-13T09:18:13.208Z,100134.78
2023-01-13T09:20:40.315Z,100116.44
2023-01-13T09:23:10.066Z,100145.84
2023-01-13T09:25:38.907Z,100146.41
2023-01-13T09:28:05.736Z,100146.59
2023-01-13T09:30:32.450Z,100150.63
2023-01-13T09:32:59.487Z,100135.19
2023-01-13T09:35:26.016Z,100151.25
2023-01-13T09:37:52.686Z,100162.09
2023-01-13T09:40:20.564Z,100145.97
2023-01-13T09:42:54.607Z,100156.19
2023-01-13T09:45:24.879Z,100140.16
2023-01-13T09:47:56.696Z,100160.94
2023-01-13T09:50:28.591Z,100153.44
2023-01-13T09:52:55.597Z,100148.91
2023-01-13T09:55:27.373Z,100157.47
2023-01-13T09:57:55.251Z,100150.72
2023-01-13T10:00:23.599Z,100156.31
2023-01-13T10:03:14.085Z,100150.78
2023-01-13T10:05:44.763Z,100142.47
2023-01-13T10:08:13.234Z,100147.47
2023-01-13T10:10:45.167Z,100141.25
2023-01-13T10:13:19.229Z,100152.31
2023-01-13T10:15:55.392Z,100117.81
2023-01-13T10:18:28.031Z,100137.63
2023-01-13T10:21:03.527Z,100155.25
2023-01-13T10:23:52.864Z,100126.13
2023-01-13T10:26:33.424Z,100141.41
2023-01-13T10:29:01.507Z,100146.22
2023-01-13T10:31:28.146Z,100117.38
2023-01-13T10:33:59.536Z,100142.63
2023-01-13T10:36:26.552Z,100142.72
2023-01-13T10:38:53.197Z,100144.41
2023-01-13T10:41:25.277Z,100130.69
2023-01-13T10:44:02.620Z,100140.81
2023-01-13T10:46:30.862Z,100141.50
2023-01-13T10:48:59.316Z,100129.31
2023-01-13T10:51:27.648Z,100083.13
2023-01-13T10:53:57.636Z,100142.63
2023-01-13T10:56:25.760Z,100137.22
2023-01-13T10:58:52.795Z,100132.78
2023-01-13T11:01:24.131Z,100131.25
2023-01-13T11:03:51.513Z,100126.66
2023-01-13T11:06:24.548Z,100128.47
2023-01-13T11:08:53.882Z,100104.59
2023-01-13T11:11:41.888Z,100135.53
2023-01-13T11:14:19.248Z,100139.16
2023-01-13T11:16:53.936Z,100141.34
2023-01-13T11:19:24.410Z,100144.56
2023-01-13T11:21:56.243Z,100163.97
2023-01-13T11:24:26.984Z,100159.13
2023-01-13T11:26:59.128Z,100149.97
2023-01-13T11:29:31.769Z,100158.00
2023-01-13T11:32:10.404Z,100164.38
2023-01-13T11:34:40.196Z,100147.59
2023-01-13T11:37:14.893Z,100125.44
2023-01-13T11:39:49.458Z,100159.38
2023-01-13T11:42:23.633Z,100139.41
2023-01-13T11:44:59.896Z,100181.88
2023-01-13T11:47:28.042Z,100175.91
2023-01-13T11:49:54.863Z,100162.84
2023-01-13T11:52:27.835Z,100158.00
2023-01-13T11:55:09.935Z,100168.69
2023-01-13T11:57:52.601Z,100160.22
2023-01-13T12:00:32.509Z,100166.31
2023-01-13T12:03:24.323Z,100155.22
2023-01-13T12:06:02.850Z,100140.19
2023-01-13T12:08:45.564Z,100157.47
2023-01-13T12:11:19.481Z,100153.59
2023-01-13T12:14:06.169Z,100145.75
2023-01-13T12:16:32.886Z,100115.22
2023-01-13T12:19:24.531Z,100161.56
2023-01-13T12:22:03.208Z,100155.47
2023-01-13T12:24:37.661Z,100158.31
2023-01-13T12:27:13.305Z,100214.50
2023-01-13T12:29:40.298Z,100214.59
2023-01-13T12:32:11.528Z,100216.22
2023-01-13T12:34:53.400Z,100199.03
2023-01-13T12:37:29.057Z,100085.78
2023-01-13T12:40:15.034Z,100202.47
2023-01-13T12:42:50.599Z,100198.25
2023-01-13T12:45:28.040Z,100203.00
2023-01-13T12:47:55.924Z,100199.22
2023-01-13T12:50:41.333Z,100193.44
2023-01-13T12:53:31.103Z,100191.78
2023-01-13T12:56:36.637Z,100199.53
2023-01-13T12:59:42.664Z,100185.69
2023-01-13T13:02:43.179Z,100192.19
2023-01-13T13:05:38.268Z,100189.13
2023-01-13T13:08:15.627Z,100182.63
2023-01-13T13:10:54.935Z,100183.59
2023-01-13T13:13:41.151Z,100192.88
2023-01-13T13:16:55.405Z,100202.34
2023-01-13T13:19:41.052Z,100186.66
2023-01-13T13:22:43.339Z,100193.47
2023-01-13T13:25:25.811Z,100195.41
2023-01-13T13:28:07.653Z,100198.44
2023-01-13T13:30:36.628Z,100179.34
2023-01-13T13:33:20.771Z,100188.50
2023-01-13T13:36:02.313Z,100205.56
2023-01-13T13:38:49.937Z,100214.00
2023-01-13T13:41:21.259Z,100196.78
2023-01-13T13:43:48.032Z,100208.50
2023-01-13T13:46:26.543Z,100206.25
2023-01-13T13:48:54.672Z,100205.84
2023-01-13T13:51:27.731Z,100218.88
2023-01-13T13:53:55.884Z,100227.97
2023-01-13T13:56:27.431Z,100238.94
2023-01-13T13:58:54.999Z,100243.75
2023-01-13T14:01:24.627Z,100244.72
2023-01-13T14:04:05.973Z,100247.34
2023-01-13T14:06:32.989Z,100259.13
2023-01-13T14:08:59.595Z,100269.69
2023-01-13T14:11:29.542Z,100275.78
2023-01-13T14:14:06.600Z,100295.69
2023-01-13T14:16:36.229Z,100305.25
2023-01-13T14:19:03.054Z,100321.13
2023-01-13T14:21:30.691Z,100339.25
2023-01-13T14:24:00.483Z,100325.88
2023-01-13T14:26:32.190Z,100324.16
2023-01-13T14:29:01.880Z,100333.59
2023-01-13T14:31:29.605Z,100358.38
2023-01-13T14:33:58.159Z,100343.56
2023-01-13T14:36:34.788Z,100353.75
2023-01-13T14:39:23.780Z,100364.03
2023-01-13T14:41:52.565Z,100359.34
2023-01-13T14:44:24.698Z,100361.84
2023-01-13T14:46:52.100Z,100374.66
2023-01-13T14:49:24.728Z,100365.31
2023-01-13T14:51:52.276Z,100383.50
2023-01-13T14:54:47.550Z,100380.19
2023-01-13T14:57:23.631Z,100371.97
2023-01-13T14:59:56.504Z,100346.81
2023-01-13T15:03:00.913Z,100393.38
2023-01-13T15:05:39.593Z,100375.28
2023-01-13T15:08:25.751Z,100393.88
2023-01-13T15:10:55.279Z,100384.13
2023-01-13T15:13:27.291Z,100408.22
2023-01-13T15:15:56.598Z,100405.59
2023-01-13T15:18:23.691Z,100410.16
2023-01-13T15:20:50.331Z,100420.78
2023-01-13T15:23:17.286Z,100424.34
2023-01-13T15:25:45.239Z,100427.84
2023-01-13T15:28:17.275Z,100433.22
2023-01-13T15:30:45.825Z,100431.66
2023-01-13T15:33:13.890Z,100387.47
2023-01-13T15:35:43.541Z,100445.28
2023-01-13T15:38:12.046Z,100392.50
2023-01-13T15:40:38.589Z,100443.72
2023-01-13T15:43:05.173Z,100441.56
2023-01-13T15:45:33.595Z,100421.63
2023-01-13T15:48:02.420Z,100452.44
2023-01-13T15:50:28.912Z,100431.31
2023-01-13T15:52:55.382Z,100448.25
2023-01-13T15:55:21.907Z,100456.47
2023-01-13T15:57:49.987Z,100455.31
2023-01-13T16:00:19.128Z,100466.03
2023-01-13T16:02:45.793Z,100467.00
2023-01-13T16:05:13.701Z,100459.47
2023-01-13T16:07:40.870Z,100468.22
2023-01-13T16:10:16.191Z,100469.41
2023-01-13T16:12:42.782Z,100463.31
2023-01-13T16:15:10.914Z,100466.03
2023-01-13T16:17:37.504Z,100467.75
2023-01-13T16:20:05.164Z,100454.81
2023-01-13T16:22:33.370Z,100471.56
2023-01-13T16:24:59.887Z,100479.78
2023-01-13T16:27:26.422Z,100481.09
2023-01-13T16:29:53.005Z,100468.34
2023-01-13T16:32:19.801Z,100492.94
2023-01-13T16:34:46.661Z,100487.56
2023-01-13T16:37:18.904Z,100496.75
2023-01-13T16:39:46.870Z,100483.03
2023-01-13T16:42:13.407Z,100501.78
2023-01-13T16:44:40.111Z,100509.56
2023-01-13T16:47:06.868Z,100488.78
2023-01-13T16:49:33.466Z,100515.78
2023-01-13T16:51:59.957Z,100526.03
2023-01-13T16:54:26.566Z,100523.19
2023-01-13T16:56:54.415Z,100526.03
2023-01-13T16:59:21.016Z,100524.97
2023-01-13T17:01:47.679Z,100534.66
2023-01-13T17:04:16.663Z,100531.53
2023-01-13T17:06:57.052Z,100529.84
2023-01-13T17:09:26.963Z,100538.94
2023-01-13T17:11:55.433Z,100541.44
2023-01-13T17:14:22.859Z,100543.13
2023-01-13T17:16:50.449Z,100571.69
2023-01-13T17:19:17.369Z,100583.66
2023-01-13T17:21:43.885Z,100582.09
2023-01-13T17:24:10.564Z,100583.66
2023-01-13T17:26:39.021Z,100584.13
2023-01-13T17:29:11.584Z,100603.59
2023-01-13T17:31:38.320Z,100595.84
2023-01-13T17:34:05.109Z,100611.38
2023-01-13T17:36:32.262Z,100603.38
2023-01-13T17:38:58.950Z,100605.88
2023-01-13T17:41:26.069Z,100611.38
2023-01-13T17:43:53.181Z,100609.38
2023-01-13T17:46:22.069Z,100616.41
2023-01-13T17:48:49.736Z,100610.16
2023-01-13T17:51:17.712Z,100602.06
2023-01-13T17:53:44.998Z,100618.06
2023-01-13T17:56:13.959Z,100618.31
2023-01-13T17:58:41.432Z,100634.78
2023-01-13T18:01:09.652Z,100634.31
2023-01-13T18:03:38.393Z,100632.53
2023-01-13T18:06:07.104Z,100631.94
2023-01-13T18:08:33.700Z,100624.03
2023-01-13T18:11:00.474Z,100634.44
2023-01-13T18:13:27.041Z,100633.47
2023-01-13T18:15:59.762Z,100644.22
2023-01-13T18:18:26.536Z,100645.06
2023-01-13T18:20:54.772Z,100656.16
2023-01-13T18:23:21.722Z,100650.31
2023-01-13T18:25:48.214Z,100654.88
2023-01-13T18:28:14.841Z,100654.97
2023-01-13T18:30:41.359Z,100659.28
2023-01-13T18:33:07.935Z,100659.28
2023-01-13T18:35:34.630Z,100664.69
2023-01-13T18:38:02.549Z,100662.75
2023-01-13T18:40:29.040Z,100665.75
2023-01-13T18:42:55.658Z,100676.38
2023-01-13T18:45:24.243Z,100680.59
2023-01-13T18:47:51.655Z,100676.28
2023-01-13T18:50:18.384Z,100668.16
2023-01-13T18:52:45.059Z,100677.00
2023-01-13T18:55:12.995Z,100678.06
2023-01-13T18:57:39.827Z,100682.16
2023-01-13T19:00:08.384Z,100660.13
2023-01-13T19:02:35.089Z,100687.16
2023-01-13T19:05:01.761Z,100690.53
2023-01-13T19:07:28.447Z,100687.78
2023-01-13T19:09:55.662Z,100698.63
2023-01-13T19:12:23.681Z,100685.47
2023-01-13T19:14:50.374Z,100667.63
2023-01-13T19:17:16.964Z,100708.34
2023-01-13T19:19:45.372Z,100711.31
2023-01-13T19:22:13.117Z,100715.88
2023-01-13T19:24:39.959Z,100721.63
2023-01-13T19:27:06.608Z,100713.94
2023-01-13T19:29:34.709Z,100723.88
2023-01-13T19:32:01.307Z,100717.41
2023-01-13T19:34:28.133Z,100726.03
2023-01-13T19:36:55.137Z,100726.50
2023-01-13T19:39:21.969Z,100733.56
2023-01-13T19:41:48.787Z,100740.53
2023-01-13T19:44:15.459Z,100631.63
2023-01-13T19:46:43.465Z,100744.09
2023-01-13T19:49:10.051Z,100754.84
2023-01-13T19:51:36.685Z,100747.66
2023-01-13T19:54:03.425Z,100726.63
2023-01-13T19:56:30.058Z,100751.25
2023-01-13T19:58:56.602Z,100751.06
2023-01-13T20:01:23.271Z,100740.34
2023-01-13T20:03:51.203Z,100759.03
2023-01-13T20:06:17.756Z,100745.03
2023-01-13T20:08:44.238Z,100768.53
2023-01-13T20:11:11.002Z,100749.34
2023-01-13T20:13:37.495Z,100768.59
2023-01-13T20:16:05.092Z,100769.47
2023-01-13T20:18:32.310Z,100780.31
2023-01-13T20:21:04.138Z,100775.53
2023-01-13T20:23:30.613Z,100783.28
2023-01-13T20:25:57.445Z,100751.56
2023-01-13T20:28:24.108Z,100786.63
2023-01-13T20:30:50.619Z,100791.31
2023-01-13T20:33:17.293Z,100792.25
2023-01-13T20:35:43.796Z,100787.59
2023-01-13T20:38:12.049Z,100791.41
2023-01-13T20:40:38.595Z,100796.28
2023-01-13T20:43:05.195Z,100796.88
2023-01-13T20:45:31.773Z,100802.41
2023-01-13T20:47:58.351Z,100810.09
2023-01-13T20:50:24.843Z,100817.38
2023-01-13T20:52:51.384Z,100807.94
2023-01-13T20:55:19.342Z,100812.81
2023-01-13T20:57:45.930Z,100820.25
2023-01-13T21:00:13.112Z,100820.84
2023-01-13T21:02:40.203Z,100827.19
2023-01-13T21:05:07.115Z,100831.13
2023-01-13T21:07:33.726Z,100819.00
2023-01-13T21:10:00.393Z,100832.44
2023-01-13T21:12:28.381Z,100838.75
2023-01-13T21:14:54.883Z,100839.97
2023-01-13T21:17:21.530Z,100841.38
2023-01-13T21:19:48.025Z,100839.50
2023-01-13T21:22:14.619Z,100842.13
2023-01-13T21:24:41.156Z,100819.56
2023-01-13T21:27:08.108Z,100841.13
2023-01-13T21:29:36.003Z,100846.94
2023-01-13T21:32:02.607Z,100831.78
2023-01-13T21:34:29.296Z,100852.06
2023-01-13T21:36:55.957Z,100830.97
2023-01-13T21:39:22.486Z,100849.56
2023-01-13T21:41:49.095Z,100850.25
2023-01-13T21:44:17.109Z,100844.50
2023-01-13T21:46:45.049Z,100848.94
2023-01-13T21:49:11.537Z,100837.81
2023-01-13T21:51:38.124Z,100844.28
2023-01-13T21:54:04.697Z,100822.94
2023-01-13T21:56:31.321Z,100847.88
2023-01-13T21:58:57.851Z,100852.88
2023-01-13T22:01:25.481Z,100851.94
2023-01-13T22:03:53.480Z,100863.22
2023-01-13T22:06:20.160Z,100868.50
2023-01-13T22:08:46.726Z,100870.78
2023-01-13T22:11:13.337Z,100880.69
2023-01-13T22:13:40.114Z,100880.81
2023-01-13T22:16:07.248Z,100885.13
2023-01-13T22:18:33.824Z,100882.59
2023-01-13T22:21:01.772Z,100886.97
2023-01-13T22:23:28.490Z,100895.75
2023-01-13T22:26:00.616Z,100892.34
2023-01-13T22:28:27.189Z,100883.22
2023-01-13T22:30:53.790Z,100891.22
2023-01-13T22:33:20.345Z,100881.97
2023-01-13T22:35:54.116Z,100903.28
2023-01-13T22:38:22.068Z,100903.19
2023-01-13T22:40:55.609Z,100898.66
2023-01-13T22:43:22.230Z,100899.25
2023-01-13T22:45:56.239Z,100906.31
2023-01-13T22:48:22.893Z,100886.59
2023-01-13T22:50:49.408Z,100901.06
2023-01-13T22:53:16.056Z,100906.22
2023-01-13T22:55:44.460Z,100905.56
2023-01-13T22:58:11.085Z,100912.53
2023-01-13T23:00:37.620Z,100914.31
2023-01-13T23:03:05.306Z,100902.03
2023-01-13T23:05:31.793Z,100929.16
2023-01-13T23:07:58.539Z,100931.69
2023-01-13T23:10:25.042Z,100924.53
2023-01-13T23:12:52.941Z,100919.97
2023-01-13T23:15:19.598Z,100936.84
2023-01-13T23:17:48.526Z,100936.94
2023-01-13T23:20:15.877Z,100935.16
2023-01-13T23:22:42.431Z,100930.94
2023-01-13T23:25:10.136Z,100935.50
2023-01-13T23:27:37.276Z,100931.06
2023-01-13T23:30:08.066Z,100935.50
2023-01-13T23:32:35.158Z,100933.47
2023-01-13T23:35:01.864Z,100927.72
2023-01-13T23:37:28.620Z,100934.97
2023-01-13T23:39:55.133Z,100906.28
2023-01-13T23:42:21.721Z,100941.47
2023-01-13T23:44:48.266Z,100947.16
2023-01-13T23:47:16.233Z,100939.09
2023-01-13T23:49:42.761Z,100912.88
2023-01-13T23:52:09.464Z,100959.63
2023-01-13T23:54:36.446Z,100954.53
2023-01-13T23:57:03.046Z,100968.34
2023-01-13T23:59:29.593Z,100962.75
